createdAt,value
2018-07-02T00:00:57.080Z,1013.7
2018-07-02T00:01:59.078Z,1013.8
2018-07-02T00:03:01.087Z,1013.8
2018-07-02T00:04:03.081Z,1013.8
2018-07-02T00:05:05.068Z,1013.8
2018-07-02T00:06:07.458Z,1013.7
2018-07-02T00:07:10.193Z,1013.7
2018-07-02T00:08:12.519Z,1013.7
2018-07-02T00:09:14.512Z,1013.7
2018-07-02T00:10:16.518Z,1013.7
2018-07-02T00:11:19.333Z,1013.7
2018-07-02T00:12:21.317Z,1013.7
2018-07-02T00:13:23.954Z,1013.7
2018-07-02T00:14:25.962Z,1013.7
2018-07-02T00:15:27.952Z,1013.7
2018-07-02T00:16:29.951Z,1013.7
2018-07-02T00:17:31.948Z,1013.7
2018-07-02T00:18:33.963Z,1013.6
2018-07-02T00:19:35.938Z,1013.6
2018-07-02T00:20:37.940Z,1013.6
2018-07-02T00:21:39.935Z,1013.6
2018-07-02T00:22:41.922Z,1013.6
2018-07-02T00:23:44.306Z,1013.5
2018-07-02T00:24:46.604Z,1013.6
2018-07-02T00:25:48.680Z,1013.5
2018-07-02T00:26:51.105Z,1013.5
2018-07-02T00:27:53.093Z,1013.5
2018-07-02T00:28:55.483Z,1013.5
2018-07-02T00:29:57.475Z,1013.5
2018-07-02T00:30:59.888Z,1013.5
2018-07-02T00:32:01.884Z,1013.5
2018-07-02T00:33:03.877Z,1013.5
2018-07-02T00:34:06.201Z,1013.5
2018-07-02T00:35:08.184Z,1013.5
2018-07-02T00:36:10.181Z,1013.5
2018-07-02T00:37:12.499Z,1013.5
2018-07-02T00:38:14.501Z,1013.5
2018-07-02T00:39:16.495Z,1013.5
2018-07-02T00:40:18.482Z,1013.5
2018-07-02T00:41:20.479Z,1013.5
2018-07-02T00:42:22.858Z,1013.5
2018-07-02T00:43:24.845Z,1013.4
2018-07-02T00:44:26.849Z,1013.5
2018-07-02T00:45:28.832Z,1013.4
2018-07-02T00:46:30.836Z,1013.4
2018-07-02T00:47:32.824Z,1013.4
2018-07-02T00:48:34.817Z,1013.4
2018-07-02T00:49:36.825Z,1013.4
2018-07-02T00:50:38.817Z,1013.4
2018-07-02T00:51:40.812Z,1013.4
2018-07-02T00:52:42.797Z,1013.4
2018-07-02T00:53:44.777Z,1013.4
2018-07-02T00:54:46.785Z,1013.4
2018-07-02T00:55:49.440Z,1013.4
2018-07-02T00:56:51.824Z,1013.4
2018-07-02T00:57:53.817Z,1013.4
2018-07-02T00:58:55.816Z,1013.4
2018-07-02T00:59:58.414Z,1013.4
2018-07-02T01:01:00.408Z,1013.4
2018-07-02T01:02:02.405Z,1013.4
2018-07-02T01:03:05.081Z,1013.4
2018-07-02T01:04:07.086Z,1013.4
2018-07-02T01:05:09.378Z,1013.4
2018-07-02T01:06:11.373Z,1013.3
2018-07-02T01:07:13.361Z,1013.4
2018-07-02T01:08:15.354Z,1013.3
2018-07-02T01:09:17.350Z,1013.3
2018-07-02T01:10:19.337Z,1013.3
2018-07-02T01:11:21.331Z,1013.3
2018-07-02T01:12:23.317Z,1013.3
2018-07-02T01:13:25.315Z,1013.3
2018-07-02T01:14:27.300Z,1013.3
2018-07-02T01:15:29.295Z,1013.3
2018-07-02T01:16:31.283Z,1013.3
2018-07-02T01:17:33.275Z,1013.3
2018-07-02T01:18:35.265Z,1013.3
2018-07-02T01:19:37.588Z,1013.2
2018-07-02T01:20:39.575Z,1013.2
2018-07-02T01:21:42.436Z,1013.2
2018-07-02T01:22:44.432Z,1013.2
2018-07-02T01:23:46.433Z,1013.2
2018-07-02T01:24:48.416Z,1013.1
2018-07-02T01:25:50.635Z,1013.1
2018-07-02T01:26:52.630Z,1013.1
2018-07-02T01:27:54.627Z,1013.2
2018-07-02T01:28:56.622Z,1013.2
2018-07-02T01:29:58.622Z,1013.1
2018-07-02T01:31:00.610Z,1013.2
2018-07-02T01:32:02.606Z,1013.2
2018-07-02T01:33:04.592Z,1013.2
2018-07-02T01:34:06.596Z,1013.2
2018-07-02T01:35:08.584Z,1013.1
2018-07-02T01:36:10.584Z,1013.1
2018-07-02T01:37:12.577Z,1013.2
2018-07-02T01:38:14.571Z,1013.1
2018-07-02T01:39:16.957Z,1013.1
2018-07-02T01:40:19.784Z,1013.1
2018-07-02T01:41:21.769Z,1013.1
2018-07-02T01:42:23.779Z,1013.1
2018-07-02T01:43:25.764Z,1013.1
2018-07-02T01:44:27.769Z,1013.1
2018-07-02T01:45:29.762Z,1013.1
2018-07-02T01:46:32.474Z,1013.1
2018-07-02T01:47:34.477Z,1013.1
2018-07-02T01:48:36.452Z,1013.1
2018-07-02T01:49:38.450Z,1013
2018-07-02T01:50:40.442Z,1013.1
2018-07-02T01:51:42.428Z,1013
2018-07-02T01:52:44.426Z,1013
2018-07-02T01:53:46.421Z,1013.1
2018-07-02T01:54:49.051Z,1013
2018-07-02T01:55:51.047Z,1013
2018-07-02T01:56:53.036Z,1013
2018-07-02T01:57:55.031Z,1013
2018-07-02T01:58:57.036Z,1013
2018-07-02T01:59:59.027Z,1012.9
2018-07-02T02:01:01.011Z,1013
2018-07-02T02:02:03.804Z,1012.9
2018-07-02T02:03:05.798Z,1012.9
2018-07-02T02:04:07.793Z,1012.9
2018-07-02T02:05:10.115Z,1012.9
2018-07-02T02:06:12.414Z,1012.8
2018-07-02T02:07:14.414Z,1012.8
2018-07-02T02:08:16.697Z,1012.9
2018-07-02T02:09:18.688Z,1012.9
2018-07-02T02:10:20.694Z,1012.8
2018-07-02T02:11:22.683Z,1012.8
2018-07-02T02:12:24.678Z,1012.8
2018-07-02T02:13:26.668Z,1012.8
2018-07-02T02:14:28.961Z,1012.8
2018-07-02T02:15:30.941Z,1012.8
2018-07-02T02:16:32.937Z,1012.7
2018-07-02T02:17:35.258Z,1012.7
2018-07-02T02:18:37.536Z,1012.7
2018-07-02T02:19:39.527Z,1012.7
2018-07-02T02:20:41.518Z,1012.7
2018-07-02T02:21:43.524Z,1012.7
2018-07-02T02:22:45.577Z,1012.7
2018-07-02T02:23:47.511Z,1012.7
2018-07-02T02:24:49.514Z,1012.7
2018-07-02T02:25:51.504Z,1012.7
2018-07-02T02:26:53.493Z,1012.7
2018-07-02T02:27:55.483Z,1012.7
2018-07-02T02:28:57.475Z,1012.7
2018-07-02T02:29:59.479Z,1012.6
2018-07-02T02:31:02.431Z,1012.6
2018-07-02T02:32:04.824Z,1012.6
2018-07-02T02:33:07.419Z,1012.6
2018-07-02T02:34:09.415Z,1012.6
2018-07-02T02:35:11.410Z,1012.6
2018-07-02T02:36:13.404Z,1012.6
2018-07-02T02:37:16.384Z,1012.6
2018-07-02T02:38:18.722Z,1012.6
2018-07-02T02:39:20.670Z,1012.6
2018-07-02T02:40:22.675Z,1012.5
2018-07-02T02:41:24.654Z,1012.5
2018-07-02T02:42:26.647Z,1012.5
2018-07-02T02:43:28.646Z,1012.5
2018-07-02T02:44:31.324Z,1012.4
2018-07-02T02:45:33.312Z,1012.4
2018-07-02T02:46:35.633Z,1012.4
2018-07-02T02:47:38.307Z,1012.5
2018-07-02T02:48:40.300Z,1012.4
2018-07-02T02:49:43.311Z,1012.4
2018-07-02T02:50:45.310Z,1012.5
2018-07-02T02:51:47.307Z,1012.4
2018-07-02T02:52:49.626Z,1012.4
2018-07-02T02:53:51.933Z,1012.4
2018-07-02T02:54:53.921Z,1012.4
2018-07-02T02:55:55.915Z,1012.5
2018-07-02T02:56:58.217Z,1012.4
2018-07-02T02:58:00.198Z,1012.4
2018-07-02T02:59:02.197Z,1012.4
2018-07-02T03:00:04.194Z,1012.5
2018-07-02T03:01:06.184Z,1012.4
2018-07-02T03:02:08.167Z,1012.4
2018-07-02T03:03:10.167Z,1012.5
2018-07-02T03:04:12.166Z,1012.5
2018-07-02T03:05:14.964Z,1012.4
2018-07-02T03:06:17.255Z,1012.4
2018-07-02T03:07:19.256Z,1012.4
2018-07-02T03:08:21.245Z,1012.5
2018-07-02T03:09:23.562Z,1012.5
2018-07-02T03:10:26.309Z,1012.5
2018-07-02T03:11:28.907Z,1012.5
2018-07-02T03:12:31.831Z,1012.5
2018-07-02T03:13:34.149Z,1012.5
2018-07-02T03:14:36.118Z,1012.5
2018-07-02T03:15:38.123Z,1012.6
2018-07-02T03:16:40.442Z,1012.5
2018-07-02T03:17:42.821Z,1012.5
2018-07-02T03:18:45.498Z,1012.5
2018-07-02T03:19:47.502Z,1012.5
2018-07-02T03:20:49.497Z,1012.5
2018-07-02T03:21:52.378Z,1012.5
2018-07-02T03:22:54.970Z,1012.6
2018-07-02T03:23:56.977Z,1012.6
2018-07-02T03:24:59.577Z,1012.6
2018-07-02T03:26:01.572Z,1012.6
2018-07-02T03:27:03.563Z,1012.6
2018-07-02T03:28:05.567Z,1012.6
2018-07-02T03:29:07.546Z,1012.6
2018-07-02T03:30:10.499Z,1012.6
2018-07-02T03:31:13.478Z,1012.6
2018-07-02T03:32:16.059Z,1012.6
2018-07-02T03:33:18.041Z,1012.6
2018-07-02T03:34:20.028Z,1012.6
2018-07-02T03:35:22.020Z,1012.6
2018-07-02T03:36:24.408Z,1012.6
2018-07-02T03:37:26.694Z,1012.6
2018-07-02T03:38:28.698Z,1012.6
2018-07-02T03:39:30.685Z,1012.6
2018-07-02T03:40:32.672Z,1012.6
2018-07-02T03:41:34.672Z,1012.6
2018-07-02T03:42:36.667Z,1012.6
2018-07-02T03:43:38.664Z,1012.5
2018-07-02T03:44:40.657Z,1012.5
2018-07-02T03:45:42.652Z,1012.5
2018-07-02T03:46:45.028Z,1012.5
2018-07-02T03:47:47.405Z,1012.6
2018-07-02T03:48:49.415Z,1012.5
2018-07-02T03:49:52.013Z,1012.5
2018-07-02T03:50:54.013Z,1012.5
2018-07-02T03:51:56.022Z,1012.5
2018-07-02T03:52:57.995Z,1012.5
2018-07-02T03:54:00.002Z,1012.5
2018-07-02T03:55:01.987Z,1012.5
2018-07-02T03:56:03.990Z,1012.6
2018-07-02T03:57:05.983Z,1012.6
2018-07-02T03:58:07.969Z,1012.6
2018-07-02T03:59:09.958Z,1012.6
2018-07-02T04:00:11.956Z,1012.6
2018-07-02T04:01:13.988Z,1012.6
2018-07-02T04:02:15.945Z,1012.6
2018-07-02T04:03:17.931Z,1012.6
2018-07-02T04:04:19.984Z,1012.6
2018-07-02T04:05:21.923Z,1012.6
2018-07-02T04:06:23.918Z,1012.6
2018-07-02T04:07:26.238Z,1012.6
2018-07-02T04:08:28.543Z,1012.6
2018-07-02T04:09:30.523Z,1012.6
2018-07-02T04:10:32.515Z,1012.6
2018-07-02T04:11:34.514Z,1012.6
2018-07-02T04:12:36.513Z,1012.6
2018-07-02T04:13:38.501Z,1012.6
2018-07-02T04:14:40.498Z,1012.6
2018-07-02T04:15:43.477Z,1012.6
2018-07-02T04:16:45.474Z,1012.6
2018-07-02T04:17:48.260Z,1012.6
2018-07-02T04:18:50.653Z,1012.6
2018-07-02T04:19:52.656Z,1012.5
2018-07-02T04:20:54.636Z,1012.5
2018-07-02T04:21:56.640Z,1012.6
2018-07-02T04:22:58.933Z,1012.5
2018-07-02T04:24:00.930Z,1012.5
2018-07-02T04:25:02.922Z,1012.5
2018-07-02T04:26:04.924Z,1012.5
2018-07-02T04:27:06.914Z,1012.5
2018-07-02T04:28:08.919Z,1012.5
2018-07-02T04:29:11.253Z,1012.5
2018-07-02T04:30:13.542Z,1012.5
2018-07-02T04:31:15.540Z,1012.5
2018-07-02T04:32:17.540Z,1012.5
2018-07-02T04:33:19.530Z,1012.5
2018-07-02T04:34:21.525Z,1012.5
2018-07-02T04:35:23.848Z,1012.5
2018-07-02T04:36:25.839Z,1012.5
2018-07-02T04:37:28.656Z,1012.5
2018-07-02T04:38:30.649Z,1012.5
2018-07-02T04:39:32.935Z,1012.5
2018-07-02T04:40:35.317Z,1012.5
2018-07-02T04:41:38.771Z,1012.5
2018-07-02T04:42:40.764Z,1012.5
2018-07-02T04:43:43.140Z,1012.5
2018-07-02T04:44:45.129Z,1012.5
2018-07-02T04:45:47.135Z,1012.5
2018-07-02T04:46:49.131Z,1012.5
2018-07-02T04:47:51.133Z,1012.5
2018-07-02T04:48:53.133Z,1012.5
2018-07-02T04:49:55.127Z,1012.5
2018-07-02T04:50:57.125Z,1012.6
2018-07-02T04:51:59.130Z,1012.5
2018-07-02T04:53:01.839Z,1012.6
2018-07-02T04:54:03.841Z,1012.5
2018-07-02T04:55:05.832Z,1012.6
2018-07-02T04:56:07.826Z,1012.6
2018-07-02T04:57:09.823Z,1012.5
2018-07-02T04:58:11.823Z,1012.5
2018-07-02T04:59:13.825Z,1012.5
2018-07-02T05:00:15.827Z,1012.5
2018-07-02T05:01:17.809Z,1012.5
2018-07-02T05:02:19.810Z,1012.5
2018-07-02T05:03:21.803Z,1012.5
2018-07-02T05:04:23.799Z,1012.5
2018-07-02T05:05:26.069Z,1012.5
2018-07-02T05:06:28.063Z,1012.5
2018-07-02T05:07:30.052Z,1012.5
2018-07-02T05:08:32.066Z,1012.5
2018-07-02T05:09:34.062Z,1012.5
2018-07-02T05:10:36.056Z,1012.5
2018-07-02T05:11:38.365Z,1012.5
2018-07-02T05:12:40.363Z,1012.5
2018-07-02T05:13:42.361Z,1012.5
2018-07-02T05:14:44.370Z,1012.5
2018-07-02T05:15:46.371Z,1012.5
2018-07-02T05:16:48.367Z,1012.5
2018-07-02T05:17:50.365Z,1012.5
2018-07-02T05:18:52.361Z,1012.5
2018-07-02T05:19:54.359Z,1012.5
2018-07-02T05:20:56.349Z,1012.5
2018-07-02T05:21:58.352Z,1012.5
2018-07-02T05:23:00.346Z,1012.5
2018-07-02T05:24:02.729Z,1012.5
2018-07-02T05:25:04.725Z,1012.5
2018-07-02T05:26:06.716Z,1012.5
2018-07-02T05:27:08.730Z,1012.5
2018-07-02T05:28:10.718Z,1012.5
2018-07-02T05:29:12.712Z,1012.5
2018-07-02T05:30:14.993Z,1012.5
2018-07-02T05:31:17.023Z,1012.5
2018-07-02T05:32:19.273Z,1012.5
2018-07-02T05:33:21.264Z,1012.5
2018-07-02T05:34:23.278Z,1012.5
2018-07-02T05:35:25.281Z,1012.5
2018-07-02T05:36:27.268Z,1012.4
2018-07-02T05:37:29.270Z,1012.4
2018-07-02T05:38:31.271Z,1012.4
2018-07-02T05:39:33.266Z,1012.4
2018-07-02T05:40:35.277Z,1012.5
2018-07-02T05:41:37.266Z,1012.5
2018-07-02T05:42:39.269Z,1012.4
2018-07-02T05:43:41.273Z,1012.5
2018-07-02T05:44:43.264Z,1012.5
2018-07-02T05:45:45.443Z,1012.4
2018-07-02T05:46:47.257Z,1012.4
2018-07-02T05:47:49.252Z,1012.4
2018-07-02T05:48:51.544Z,1012.5
2018-07-02T05:49:53.533Z,1012.5
2018-07-02T05:50:55.535Z,1012.5
2018-07-02T05:51:57.914Z,1012.5
2018-07-02T05:53:00.195Z,1012.5
2018-07-02T05:54:02.198Z,1012.5
2018-07-02T05:55:05.141Z,1012.4
2018-07-02T05:56:07.139Z,1012.5
2018-07-02T05:57:09.142Z,1012.4
2018-07-02T05:58:11.142Z,1012.4
2018-07-02T05:59:13.139Z,1012.4
2018-07-02T06:00:15.487Z,1012.4
2018-07-02T06:01:17.744Z,1012.5
2018-07-02T06:02:20.031Z,1012.4
2018-07-02T06:03:22.030Z,1012.4
2018-07-02T06:04:24.309Z,1012.5
2018-07-02T06:05:26.585Z,1012.5
2018-07-02T06:06:28.580Z,1012.5
2018-07-02T06:07:30.973Z,1012.5
2018-07-02T06:08:32.954Z,1012.4
2018-07-02T06:09:34.959Z,1012.5
2018-07-02T06:10:36.948Z,1012.5
2018-07-02T06:11:38.954Z,1012.4
2018-07-02T06:12:40.950Z,1012.4
2018-07-02T06:13:43.237Z,1012.4
2018-07-02T06:14:45.624Z,1012.3
2018-07-02T06:15:47.916Z,1012.4
2018-07-02T06:16:50.203Z,1012.4
2018-07-02T06:17:52.208Z,1012.4
2018-07-02T06:18:54.492Z,1012.4
2018-07-02T06:19:56.788Z,1012.4
2018-07-02T06:20:58.797Z,1012.4
2018-07-02T06:22:00.786Z,1012.4
2018-07-02T06:23:03.172Z,1012.3
2018-07-02T06:24:05.181Z,1012.4
2018-07-02T06:25:07.480Z,1012.4
2018-07-02T06:26:09.473Z,1012.4
2018-07-02T06:27:11.472Z,1012.4
2018-07-02T06:28:13.473Z,1012.4
2018-07-02T06:29:15.480Z,1012.5
2018-07-02T06:30:17.473Z,1012.4
2018-07-02T06:31:20.155Z,1012.5
2018-07-02T06:32:22.152Z,1012.5
2018-07-02T06:33:24.150Z,1012.5
2018-07-02T06:34:26.151Z,1012.5
2018-07-02T06:35:28.439Z,1012.5
2018-07-02T06:36:30.444Z,1012.5
2018-07-02T06:37:32.447Z,1012.5
2018-07-02T06:38:34.458Z,1012.5
2018-07-02T06:39:36.737Z,1012.5
2018-07-02T06:40:38.729Z,1012.5
2018-07-02T06:41:40.737Z,1012.5
2018-07-02T06:42:43.018Z,1012.5
2018-07-02T06:43:45.408Z,1012.5
2018-07-02T06:44:47.409Z,1012.5
2018-07-02T06:45:49.793Z,1012.5
2018-07-02T06:46:51.794Z,1012.5
2018-07-02T06:47:53.792Z,1012.5
2018-07-02T06:48:55.787Z,1012.5
2018-07-02T06:49:57.814Z,1012.5
2018-07-02T06:51:00.095Z,1012.5
2018-07-02T06:52:02.393Z,1012.5
2018-07-02T06:53:04.778Z,1012.5
2018-07-02T06:54:06.809Z,1012.5
2018-07-02T06:55:08.859Z,1012.5
2018-07-02T06:56:11.767Z,1012.5
2018-07-02T06:57:13.752Z,1012.6
2018-07-02T06:58:15.817Z,1012.5
2018-07-02T06:59:18.412Z,1012.5
2018-07-02T07:00:20.415Z,1012.5
2018-07-02T07:01:22.419Z,1012.6
2018-07-02T07:02:24.416Z,1012.5
2018-07-02T07:03:26.429Z,1012.5
2018-07-02T07:04:28.796Z,1012.5
2018-07-02T07:05:30.812Z,1012.5
2018-07-02T07:06:32.828Z,1012.5
2018-07-02T07:07:34.876Z,1012.5
2018-07-02T07:08:36.926Z,1012.5
2018-07-02T07:09:38.897Z,1012.4
2018-07-02T07:10:40.976Z,1012.5
2018-07-02T07:11:43.272Z,1012.5
2018-07-02T07:12:45.342Z,1012.5
2018-07-02T07:13:47.350Z,1012.5
2018-07-02T07:14:49.356Z,1012.5
2018-07-02T07:15:51.352Z,1012.5
2018-07-02T07:16:53.366Z,1012.5
2018-07-02T07:17:55.376Z,1012.5
2018-07-02T07:18:57.378Z,1012.5
2018-07-02T07:19:59.395Z,1012.4
2018-07-02T07:21:01.788Z,1012.5
2018-07-02T07:22:03.796Z,1012.5
2018-07-02T07:23:05.810Z,1012.4
2018-07-02T07:24:07.810Z,1012.5
2018-07-02T07:25:09.829Z,1012.4
2018-07-02T07:26:11.826Z,1012.5
2018-07-02T07:27:13.827Z,1012.4
2018-07-02T07:28:15.846Z,1012.4
2018-07-02T07:29:17.846Z,1012.4
2018-07-02T07:30:19.869Z,1012.4
2018-07-02T07:31:21.925Z,1012.4
2018-07-02T07:32:23.975Z,1012.4
2018-07-02T07:33:26.113Z,1012.4
2018-07-02T07:34:28.397Z,1012.5
2018-07-02T07:35:30.407Z,1012.5
2018-07-02T07:36:32.415Z,1012.4
2018-07-02T07:37:34.804Z,1012.4
2018-07-02T07:38:37.092Z,1012.4
2018-07-02T07:39:39.105Z,1012.4
2018-07-02T07:40:41.218Z,1012.5
2018-07-02T07:41:44.044Z,1012.4
2018-07-02T07:42:46.386Z,1012.5
2018-07-02T07:43:48.382Z,1012.5
2018-07-02T07:44:50.801Z,1012.4
2018-07-02T07:45:52.790Z,1012.4
2018-07-02T07:46:54.994Z,1012.4
2018-07-02T07:47:56.999Z,1012.4
2018-07-02T07:48:59.011Z,1012.4
2018-07-02T07:50:01.009Z,1012.4
2018-07-02T07:51:03.132Z,1012.4
2018-07-02T07:52:05.519Z,1012.5
2018-07-02T07:53:07.541Z,1012.4
2018-07-02T07:54:09.567Z,1012.4
2018-07-02T07:55:11.791Z,1012.4
2018-07-02T07:56:14.222Z,1012.4
2018-07-02T07:57:16.231Z,1012.4
2018-07-02T07:58:18.521Z,1012.3
2018-07-02T07:59:20.882Z,1012.3
2018-07-02T08:00:22.921Z,1012.3
2018-07-02T08:01:24.931Z,1012.3
2018-07-02T08:02:26.960Z,1012.3
2018-07-02T08:03:28.982Z,1012.4
2018-07-02T08:04:30.991Z,1012.3
2018-07-02T08:05:32.994Z,1012.4
2018-07-02T08:06:34.992Z,1012.3
2018-07-02T08:07:37.010Z,1012.3
2018-07-02T08:08:39.015Z,1012.3
2018-07-02T08:09:41.021Z,1012.3
2018-07-02T08:10:43.025Z,1012.3
2018-07-02T08:11:45.579Z,1012.3
2018-07-02T08:12:47.588Z,1012.2
2018-07-02T08:13:49.596Z,1012.2
2018-07-02T08:14:51.605Z,1012.2
2018-07-02T08:15:53.601Z,1012.2
2018-07-02T08:16:55.783Z,1012.2
2018-07-02T08:17:58.180Z,1012.2
2018-07-02T08:19:00.323Z,1012.2
2018-07-02T08:20:03.826Z,1012.2
2018-07-02T08:21:06.302Z,1012.2
2018-07-02T08:22:08.317Z,1012.2
2018-07-02T08:23:10.333Z,1012.2
2018-07-02T08:24:12.362Z,1012.2
2018-07-02T08:25:14.376Z,1012.2
2018-07-02T08:26:16.386Z,1012.1
2018-07-02T08:27:18.697Z,1012.2
2018-07-02T08:28:21.223Z,1012.2
2018-07-02T08:29:28.133Z,1012.2
2018-07-02T08:30:30.138Z,1012.2
2018-07-02T08:31:32.155Z,1012.1
2018-07-02T08:32:34.157Z,1012.1
2018-07-02T08:33:36.160Z,1012.2
2018-07-02T08:34:38.169Z,1012.1
2018-07-02T08:35:40.168Z,1012.2
2018-07-02T08:36:42.437Z,1012.1
2018-07-02T08:37:44.579Z,1012.1
2018-07-02T08:38:46.656Z,1012.2
2018-07-02T08:39:48.767Z,1012.1
2018-07-02T08:40:50.776Z,1012.1
2018-07-02T08:41:52.784Z,1012.1
2018-07-02T08:42:54.795Z,1012.1
2018-07-02T08:43:56.797Z,1012.1
2018-07-02T08:44:58.827Z,1012
2018-07-02T08:46:01.113Z,1012
2018-07-02T08:47:03.119Z,1012
2018-07-02T08:48:05.139Z,1011.9
2018-07-02T08:49:07.421Z,1012
2018-07-02T08:50:09.434Z,1011.9
2018-07-02T08:51:11.432Z,1011.9
2018-07-02T08:52:13.556Z,1011.8
2018-07-02T08:53:15.565Z,1011.9
2018-07-02T08:54:17.568Z,1011.9
2018-07-02T08:55:19.959Z,1011.9
2018-07-02T08:56:22.269Z,1011.9
2018-07-02T08:57:24.274Z,1011.9
2018-07-02T08:58:26.287Z,1012
2018-07-02T08:59:28.570Z,1012
2018-07-02T09:00:30.628Z,1012
2018-07-02T09:01:32.889Z,1011.9
2018-07-02T09:02:35.190Z,1011.9
2018-07-02T09:03:37.269Z,1011.8
2018-07-02T09:04:39.348Z,1011.9
2018-07-02T09:05:41.663Z,1011.8
2018-07-02T09:06:43.704Z,1011.8
2018-07-02T09:07:46.101Z,1011.8
2018-07-02T09:08:48.428Z,1011.8
2018-07-02T09:09:50.893Z,1011.8
2018-07-02T09:10:53.258Z,1011.8
2018-07-02T09:11:55.671Z,1011.8
2018-07-02T09:12:58.058Z,1011.8
2018-07-02T09:14:00.073Z,1011.8
2018-07-02T09:15:02.083Z,1011.8
2018-07-02T09:16:04.084Z,1011.8
2018-07-02T09:17:06.150Z,1011.8
2018-07-02T09:18:08.241Z,1011.8
2018-07-02T09:19:10.314Z,1011.7
2018-07-02T09:20:12.750Z,1011.8
2018-07-02T09:21:14.761Z,1011.7
2018-07-02T09:22:16.770Z,1011.7
2018-07-02T09:23:18.778Z,1011.7
2018-07-02T09:24:20.790Z,1011.6
2018-07-02T09:25:22.791Z,1011.7
2018-07-02T09:26:24.812Z,1011.6
2018-07-02T09:27:26.843Z,1011.7
2018-07-02T09:28:28.854Z,1011.7
2018-07-02T09:29:30.868Z,1011.6
2018-07-02T09:30:32.879Z,1011.5
2018-07-02T09:31:35.094Z,1011.6
2018-07-02T09:32:37.185Z,1011.6
2018-07-02T09:33:39.496Z,1011.6
2018-07-02T09:34:41.897Z,1011.6
2018-07-02T09:35:43.923Z,1011.6
2018-07-02T09:36:46.217Z,1011.6
2018-07-02T09:37:48.543Z,1011.6
2018-07-02T09:38:51.057Z,1011.6
2018-07-02T09:39:53.263Z,1011.6
2018-07-02T09:40:56.478Z,1011.6
2018-07-02T09:42:01.539Z,1011.6
2018-07-02T09:43:06.245Z,1011.6
2018-07-02T09:44:08.264Z,1011.6
2018-07-02T09:45:10.291Z,1011.6
2018-07-02T09:46:12.693Z,1011.6
2018-07-02T09:47:14.687Z,1011.6
2018-07-02T09:48:17.077Z,1011.7
2018-07-02T09:49:19.088Z,1011.6
2018-07-02T09:50:21.095Z,1011.6
2018-07-02T09:51:23.104Z,1011.6
2018-07-02T09:52:25.113Z,1011.6
2018-07-02T09:53:27.339Z,1011.6
2018-07-02T09:54:29.127Z,1011.6
2018-07-02T09:55:31.145Z,1011.6
2018-07-02T09:56:33.162Z,1011.7
2018-07-02T09:57:35.170Z,1011.7
2018-07-02T09:58:37.483Z,1011.6
2018-07-02T09:59:39.507Z,1011.7
2018-07-02T10:00:41.605Z,1011.7
2018-07-02T10:01:43.533Z,1011.6
2018-07-02T10:02:45.844Z,1011.6
2018-07-02T10:03:47.865Z,1011.6
2018-07-02T10:04:49.880Z,1011.6
2018-07-02T10:05:51.888Z,1011.6
2018-07-02T10:06:54.215Z,1011.4
2018-07-02T10:07:56.229Z,1011.6
2018-07-02T10:08:58.256Z,1011.5
2018-07-02T10:10:00.266Z,1011.6
2018-07-02T10:11:02.290Z,1011.5
2018-07-02T10:12:04.688Z,1011.5
2018-07-02T10:13:06.699Z,1011.5
2018-07-02T10:14:08.721Z,1011.5
2018-07-02T10:15:10.737Z,1011.5
2018-07-02T10:16:13.026Z,1011.5
2018-07-02T10:17:15.046Z,1011.5
2018-07-02T10:18:17.060Z,1011.5
2018-07-02T10:19:19.078Z,1011.5
2018-07-02T10:20:21.508Z,1011.5
2018-07-02T10:21:23.809Z,1011.5
2018-07-02T10:22:26.129Z,1011.5
2018-07-02T10:23:28.213Z,1011.4
2018-07-02T10:24:30.157Z,1011.4
2018-07-02T10:25:32.189Z,1011.4
2018-07-02T10:26:34.197Z,1011.4
2018-07-02T10:27:36.212Z,1011.3
2018-07-02T10:28:38.232Z,1011.4
2018-07-02T10:29:40.641Z,1011.3
2018-07-02T10:30:43.018Z,1011.3
2018-07-02T10:31:45.004Z,1011.4
2018-07-02T10:32:47.293Z,1011.4
2018-07-02T10:33:49.322Z,1011.4
2018-07-02T10:34:51.614Z,1011.4
2018-07-02T10:35:53.996Z,1011.4
2018-07-02T10:36:56.015Z,1011.3
2018-07-02T10:37:58.038Z,1011.3
2018-07-02T10:39:00.076Z,1011.3
2018-07-02T10:40:02.776Z,1011.3
2018-07-02T10:41:05.054Z,1011.3
2018-07-02T10:42:07.078Z,1011.3
2018-07-02T10:43:09.089Z,1011.3
2018-07-02T10:44:11.105Z,1011.3
2018-07-02T10:45:13.508Z,1011.3
2018-07-02T10:46:15.534Z,1011.3
2018-07-02T10:47:17.551Z,1011.2
2018-07-02T10:48:19.575Z,1011.3
2018-07-02T10:49:21.585Z,1011.3
2018-07-02T10:50:23.605Z,1011.3
2018-07-02T10:51:25.631Z,1011.3
2018-07-02T10:52:27.922Z,1011.3
2018-07-02T10:53:29.942Z,1011.3
2018-07-02T10:54:31.962Z,1011.3
2018-07-02T10:55:34.049Z,1011.3
2018-07-02T10:56:36.354Z,1011.3
2018-07-02T10:57:38.376Z,1011.3
2018-07-02T10:58:40.407Z,1011.3
2018-07-02T10:59:42.427Z,1011.3
2018-07-02T11:00:44.444Z,1011.3
2018-07-02T11:01:46.468Z,1011.2
2018-07-02T11:02:48.489Z,1011.2
2018-07-02T11:03:50.508Z,1011.2
2018-07-02T11:04:52.534Z,1011.3
2018-07-02T11:05:54.561Z,1011.3
2018-07-02T11:06:56.858Z,1011.2
2018-07-02T11:07:58.869Z,1011.2
2018-07-02T11:09:01.168Z,1011.2
2018-07-02T11:10:03.477Z,1011.1
2018-07-02T11:11:05.541Z,1011.1
2018-07-02T11:12:07.809Z,1011
2018-07-02T11:13:09.837Z,1011.1
2018-07-02T11:14:12.533Z,1011.1
2018-07-02T11:15:14.554Z,1011.1
2018-07-02T11:16:16.579Z,1011.1
2018-07-02T11:17:18.601Z,1011.1
2018-07-02T11:18:20.622Z,1011.1
2018-07-02T11:19:22.647Z,1011.1
2018-07-02T11:20:24.654Z,1011.1
2018-07-02T11:21:26.673Z,1011.1
2018-07-02T11:22:28.704Z,1011.1
2018-07-02T11:23:30.742Z,1011.1
2018-07-02T11:24:32.759Z,1011
2018-07-02T11:25:34.788Z,1011
2018-07-02T11:26:37.196Z,1011
2018-07-02T11:27:39.204Z,1011
2018-07-02T11:28:41.518Z,1011
2018-07-02T11:29:43.533Z,1011
2018-07-02T11:30:45.559Z,1010.9
2018-07-02T11:31:47.868Z,1010.9
2018-07-02T11:32:50.272Z,1011
2018-07-02T11:33:52.293Z,1010.9
2018-07-02T11:34:54.312Z,1011
2018-07-02T11:35:56.329Z,1011
2018-07-02T11:36:58.346Z,1011
2018-07-02T11:38:00.369Z,1011
2018-07-02T11:39:02.383Z,1011
2018-07-02T11:40:04.391Z,1011
2018-07-02T11:41:06.422Z,1011
2018-07-02T11:42:08.434Z,1011
2018-07-02T11:43:10.452Z,1010.9
2018-07-02T11:44:12.532Z,1010.8
2018-07-02T11:45:14.869Z,1010.9
2018-07-02T11:46:16.899Z,1010.9
2018-07-02T11:47:19.295Z,1010.9
2018-07-02T11:48:21.312Z,1010.9
2018-07-02T11:49:23.331Z,1010.9
2018-07-02T11:50:25.342Z,1010.9
2018-07-02T11:51:27.355Z,1010.9
2018-07-02T11:52:29.369Z,1010.9
2018-07-02T11:53:31.396Z,1010.9
2018-07-02T11:54:33.419Z,1010.9
2018-07-02T11:55:35.422Z,1010.9
2018-07-02T11:56:37.448Z,1010.9
2018-07-02T11:57:39.465Z,1010.9
2018-07-02T11:58:41.483Z,1010.8
2018-07-02T11:59:43.880Z,1010.9
2018-07-02T12:00:46.188Z,1010.8
2018-07-02T12:01:48.248Z,1010.8
2018-07-02T12:02:50.532Z,1010.8
2018-07-02T12:03:52.555Z,1010.9
2018-07-02T12:04:54.572Z,1010.8
2018-07-02T12:05:56.585Z,1010.8
2018-07-02T12:06:58.613Z,1010.8
2018-07-02T12:08:00.628Z,1010.8
2018-07-02T12:09:02.954Z,1010.8
2018-07-02T12:10:05.955Z,1010.8
2018-07-02T12:11:07.971Z,1010.8
2018-07-02T12:12:09.995Z,1010.8
2018-07-02T12:13:12.037Z,1010.8
2018-07-02T12:14:14.054Z,1010.8
2018-07-02T12:15:19.131Z,1010.8
2018-07-02T12:16:21.147Z,1010.8
2018-07-02T12:17:23.172Z,1010.8
2018-07-02T12:18:25.193Z,1010.8
2018-07-02T12:19:27.772Z,1010.8
2018-07-02T12:20:30.167Z,1010.8
2018-07-02T12:21:32.201Z,1010.8
2018-07-02T12:22:34.497Z,1010.8
2018-07-02T12:23:36.515Z,1010.7
2018-07-02T12:24:38.538Z,1010.8
2018-07-02T12:25:40.559Z,1010.8
2018-07-02T12:26:42.590Z,1010.8
2018-07-02T12:27:44.658Z,1010.8
2018-07-02T12:28:46.691Z,1010.8
2018-07-02T12:29:48.715Z,1010.8
2018-07-02T12:30:50.786Z,1010.8
2018-07-02T12:31:53.194Z,1010.8
2018-07-02T12:32:55.307Z,1010.8
2018-07-02T12:33:57.313Z,1010.7
2018-07-02T12:34:59.409Z,1010.6
2018-07-02T12:36:01.727Z,1010.7
2018-07-02T12:37:04.135Z,1010.7
2018-07-02T12:38:06.503Z,1010.7
2018-07-02T12:39:08.529Z,1010.7
2018-07-02T12:40:10.552Z,1010.6
2018-07-02T12:41:13.027Z,1010.7
2018-07-02T12:42:15.036Z,1010.7
2018-07-02T12:43:17.432Z,1010.7
2018-07-02T12:44:19.457Z,1010.7
2018-07-02T12:45:22.054Z,1010.7
2018-07-02T12:46:24.159Z,1010.7
2018-07-02T12:47:26.222Z,1010.7
2018-07-02T12:48:28.377Z,1010.7
2018-07-02T12:49:30.404Z,1010.7
2018-07-02T12:50:32.422Z,1010.7
2018-07-02T12:51:34.432Z,1010.7
2018-07-02T12:52:36.758Z,1010.6
2018-07-02T12:53:38.839Z,1010.6
2018-07-02T12:54:40.851Z,1010.7
2018-07-02T12:55:42.925Z,1010.6
2018-07-02T12:56:44.936Z,1010.6
2018-07-02T12:57:46.973Z,1010.6